Southeast Texas Regional Airport Beaumont,Port Arthur US
ICAO: KBPT
IATA: BPT
Category: Medium
Scheduled Services: Yes

Elevation: 15 ft
TransAlt. 18000 ft.

Airport Communications:
BEAUMONT APP/DEP:121.3
ATIS:126.3
CLNC DEL:118.3
CTAF:119.5
GND:121.9
MONTGOMERY CO RDO:122.2
BEAUMONT TWR:119.5
UNICOM:122.95

KBPT Zoom In..

Runways:

(A) RW 12 length 6750 ft width 150 ft
ILS 110.15 / hdg 116

(B) RW 16 length 5070 ft width 150 ft
---- / hdg 161

(C) RW 30 length 6750 ft width 150 ft
---- / hdg 296

(D) RW 34 length 5070 ft width 150 ft
---- / hdg 341

Location; KBPT
Day. 22 / Time. 01.53 Zulu
* Altimeter: 29.97
* Temperature: 24° c. 75.2°f.
* Wind from: 310° Speed 03 kn.
Dewpoint: 21° c.
Visibility: 10 Statute Miles.
Clouds: Few 9500 ft.

KBPT 220153Z 31003KT 10SM FEW095 24/21 A2997 RMK AO2 SLP148 T02440206


Wind From 310°
Speed 03 kn.

 
 
jpsmedia.com for Web Design SOUNDCLOUD worldairports.se 2018   terms of use